Time;durP1;ratioP1;P1;durP2;ratioP2;P2;SDS_P1;SDS_P2;PMS_P1;PMS_P2;Temp;Humidity;BMP_temperature;BMP_pressure;BME280_temperature;BME280_humidity;BME280_pressure;Samples;Min_cycle;Max_cycle;Signal;HPM_P1;HPM_P2
2022/08/20 00:01:05;;;;;;;14.97;8.57;;;;;;;24.45;58.40;96743.69;6203667;23;20169;-77
2022/08/20 00:03:36;;;;;;;9.77;7.93;;;;;;;24.47;57.97;96747.00;6204612;23;20175;-77
2022/08/20 00:06:06;;;;;;;11.03;7.70;;;;;;;24.47;57.76;96747.00;6205654;23;20169;-77
2022/08/20 00:08:36;;;;;;;9.97;7.87;;;;;;;24.39;57.76;96743.50;6178199;22;20179;-77
2022/08/20 00:11:11;;;;;;;13.93;8.50;;;;;;;24.19;58.89;96749.06;6178853;23;20567;-77
2022/08/20 00:13:42;;;;;;;11.43;8.43;;;;;;;23.91;59.27;96739.69;6204876;23;20168;-77
2022/08/20 00:16:11;;;;;;;12.53;8.00;;;;;;;24.19;58.69;96751.72;6204254;23;20199;-77
2022/08/20 00:18:40;;;;;;;13.27;8.03;;;;;;;24.33;58.13;96746.78;6205398;23;20163;-77
2022/08/20 00:21:10;;;;;;;11.20;8.50;;;;;;;24.28;58.40;96736.69;6204558;23;20218;-77
2022/08/20 00:23:46;;;;;;;11.57;8.07;;;;;;;24.48;57.62;96742.53;6205263;23;20170;-77
2022/08/20 00:26:16;;;;;;;10.00;8.27;;;;;;;24.68;56.98;96738.56;6178572;23;20175;-78
2022/08/20 00:28:43;;;;;;;11.87;8.00;;;;;;;24.92;57.05;96742.09;6205056;23;20172;-77
2022/08/20 00:31:13;;;;;;;10.73;7.87;;;;;;;24.87;55.95;96733.00;6179298;22;20198;-76
2022/08/20 00:33:41;;;;;;;10.17;9.13;;;;;;;25.02;56.48;96736.63;6204568;23;20178;-77
2022/08/20 00:36:09;;;;;;;11.33;9.47;;;;;;;25.08;55.68;96733.28;6205675;23;20223;-76
2022/08/20 00:38:42;;;;;;;10.77;8.60;;;;;;;24.89;56.53;96731.81;6204047;23;20203;-76
2022/08/20 00:41:16;;;;;;;13.07;8.47;;;;;;;25.03;56.05;96728.53;6204934;23;20164;-77
2022/08/20 00:44:12;;;;;;;14.40;8.17;;;;;;;24.94;56.72;96715.44;6204709;23;20168;-76
2022/08/20 00:46:40;;;;;;;9.63;8.27;;;;;;;25.09;56.35;96711.13;6204129;23;20249;-75
2022/08/20 00:49:13;;;;;;;10.67;8.37;;;;;;;25.11;56.40;96719.72;6205387;23;20248;-76
2022/08/20 00:51:44;;;;;;;10.13;8.90;;;;;;;25.15;56.07;96714.91;6204316;23;20166;-77
2022/08/20 00:54:17;;;;;;;10.77;9.30;;;;;;;25.16;56.10;96719.22;6205285;23;20169;-76
2022/08/20 00:56:48;;;;;;;11.50;7.83;;;;;;;25.05;56.11;96717.75;6204684;23;20594;-76
2022/08/20 00:59:21;;;;;;;10.77;9.07;;;;;;;24.86;56.56;96710.13;6205044;23;20161;-76
2022/08/20 01:01:50;;;;;;;11.03;8.50;;;;;;;24.83;56.66;96711.28;6205411;23;20684;-77
2022/08/20 01:04:30;;;;;;;9.97;8.03;;;;;;;24.84;56.09;96707.66;6204420;23;20195;-77
2022/08/20 01:06:57;;;;;;;10.97;8.30;;;;;;;24.92;56.21;96712.13;6205016;23;20214;-77
2022/08/20 01:09:28;;;;;;;9.37;8.33;;;;;;;24.97;56.88;96699.22;6177988;22;20180;-77
2022/08/20 01:12:16;;;;;;;11.23;8.33;;;;;;;25.09;56.20;96710.28;6204755;23;20612;-75
2022/08/20 01:14:45;;;;;;;10.03;8.23;;;;;;;24.53;57.48;96703.13;6178844;23;20168;-75
2022/08/20 01:17:17;;;;;;;9.63;8.63;;;;;;;23.95;59.13;96688.09;6177633;23;20743;-75
2022/08/20 01:20:01;;;;;;;12.97;8.57;;;;;;;23.68;60.64;96698.91;6205147;22;20172;-76
2022/08/20 01:25:49;;;;;;;11.97;8.40;;;;;;;23.60;61.00;96698.88;6177937;22;20167;-77
2022/08/20 01:28:27;;;;;;;13.53;8.17;;;;;;;23.73;60.76;96696.63;6205154;23;20166;-77
2022/08/20 01:30:54;;;;;;;11.73;8.60;;;;;;;23.69;60.91;96691.81;6204430;23;20236;-76
2022/08/20 01:33:22;;;;;;;10.00;8.33;;;;;;;23.59;61.21;96691.94;6204362;22;20191;-76
2022/08/20 01:35:51;;;;;;;10.57;8.60;;;;;;;23.58;61.43;96690.28;6204943;23;20209;-76
2022/08/20 01:38:19;;;;;;;11.53;8.73;;;;;;;23.68;61.29;96685.69;6204088;23;20198;-77
2022/08/20 01:40:56;;;;;;;12.33;8.47;;;;;;;23.77;60.76;96692.69;6178877;23;20170;-76
2022/08/20 01:43:23;;;;;;;11.33;8.80;;;;;;;23.65;61.10;96693.13;6177976;23;20739;-76
2022/08/20 01:45:52;;;;;;;14.57;9.20;;;;;;;23.34;61.57;96682.25;6205027;23;20168;-75
2022/08/20 01:48:21;;;;;;;12.47;8.80;;;;;;;23.20;62.33;96680.16;6204493;23;20486;-75
2022/08/20 01:51:01;;;;;;;16.17;8.67;;;;;;;23.21;62.53;96671.22;6177712;23;20252;-76
2022/08/20 01:53:34;;;;;;;21.37;9.63;;;;;;;23.10;63.11;96679.44;6204824;23;20166;-75
2022/08/20 01:56:02;;;;;;;11.67;8.60;;;;;;;22.83;63.57;96679.56;6203773;22;20200;-75
2022/08/20 01:58:32;;;;;;;10.33;9.00;;;;;;;22.83;63.76;96680.41;6178255;22;20575;-75
2022/08/20 02:00:59;;;;;;;15.90;10.00;;;;;;;22.66;64.31;96675.97;6204658;23;20168;-75
2022/08/20 02:03:26;;;;;;;13.97;9.70;;;;;;;22.66;64.56;96681.25;6178493;23;20640;-77
2022/08/20 02:05:54;;;;;;;12.67;9.47;;;;;;;22.57;64.70;96680.34;6205193;23;20164;-78
2022/08/20 02:08:22;;;;;;;13.47;9.80;;;;;;;22.39;65.25;96687.44;6204772;23;20536;-77
2022/08/20 02:10:50;;;;;;;12.33;11.00;;;;;;;22.13;66.36;96673.34;6205056;23;20168;-77
2022/08/20 02:13:17;;;;;;;12.17;10.60;;;;;;;22.06;66.75;96680.19;6204139;23;20194;-77
2022/08/20 02:16:05;;;;;;;12.83;10.03;;;;;;;22.19;66.54;96682.47;6182125;23;20608;-76
2022/08/20 02:18:32;;;;;;;11.30;9.20;;;;;;;22.16;66.55;96678.31;6204538;23;20167;-77
2022/08/20 02:20:59;;;;;;;13.13;10.07;;;;;;;22.01;67.01;96669.25;6204453;22;20173;-77
2022/08/20 02:23:26;;;;;;;12.03;10.30;;;;;;;22.02;66.95;96664.81;6177946;23;20241;-76
2022/08/20 02:25:54;;;;;;;13.97;10.20;;;;;;;22.21;66.56;96668.16;6176753;23;20167;-76
2022/08/20 02:28:22;;;;;;;12.30;9.43;;;;;;;22.33;65.65;96674.84;6204819;23;20164;-76
2022/08/20 02:30:52;;;;;;;10.90;9.53;;;;;;;22.55;65.50;96673.53;6203854;23;20174;-75
2022/08/20 02:33:21;;;;;;;10.93;9.10;;;;;;;22.84;63.98;96660.09;6308182;22;20183;-76
2022/08/20 02:35:52;;;;;;;12.27;9.30;;;;;;;23.11;63.24;96662.59;6153051;23;20222;-77
2022/08/20 02:38:21;;;;;;;13.77;10.27;;;;;;;23.18;62.82;96674.19;6204556;22;20201;-76
2022/08/20 02:40:49;;;;;;;14.57;10.47;;;;;;;23.02;63.17;96674.09;6205351;23;20259;-76
2022/08/20 02:43:18;;;;;;;13.27;9.80;;;;;;;22.76;64.07;96676.72;6203913;23;20166;-76
2022/08/20 02:45:46;;;;;;;12.63;10.57;;;;;;;22.54;64.91;96661.34;6204897;23;20172;-76
2022/08/20 02:48:19;;;;;;;11.73;10.47;;;;;;;22.38;65.60;96669.94;6203861;22;20164;-76
2022/08/20 02:51:00;;;;;;;11.40;9.93;;;;;;;22.33;65.82;96674.84;6178940;23;20635;-76
2022/08/20 02:53:30;;;;;;;12.67;9.40;;;;;;;22.36;66.03;96663.97;6204296;23;20248;-77
2022/08/20 02:55:57;;;;;;;16.03;9.67;;;;;;;22.38;65.80;96656.75;6203631;23;20304;-77
2022/08/20 02:58:26;;;;;;;12.50;10.03;;;;;;;22.31;65.88;96657.50;6204804;23;20175;-76
2022/08/20 03:00:55;;;;;;;17.70;9.93;;;;;;;22.32;66.09;96667.06;6203680;23;20168;-78
2022/08/20 03:03:23;;;;;;;15.17;9.83;;;;;;;22.23;66.44;96666.19;6204204;23;20533;-78
2022/08/20 03:05:55;;;;;;;12.80;10.20;;;;;;;22.16;66.89;96659.84;6204184;23;20217;-78
2022/08/20 03:08:23;;;;;;;13.57;9.40;;;;;;;22.07;67.06;96668.63;6204071;23;20172;-78
2022/08/20 03:10:51;;;;;;;13.07;10.50;;;;;;;22.06;67.31;96664.34;6204609;23;20169;-78
2022/08/20 03:13:20;;;;;;;11.70;9.93;;;;;;;22.30;66.49;96674.31;6202153;23;20205;-77
2022/08/20 03:15:52;;;;;;;13.67;10.43;;;;;;;22.57;65.44;96669.78;6205485;23;20206;-78
2022/08/20 03:18:29;;;;;;;11.20;9.70;;;;;;;22.69;64.67;96666.94;6203874;22;20167;-76
2022/08/20 03:20:57;;;;;;;11.70;10.03;;;;;;;22.39;65.41;96641.75;6204164;23;20192;-76
2022/08/20 03:23:25;;;;;;;12.63;10.03;;;;;;;22.32;66.31;96665.25;6204124;23;20216;-76
2022/08/20 03:25:52;;;;;;;10.97;9.70;;;;;;;22.28;66.40;96660.44;6203744;23;20165;-77
2022/08/20 03:28:20;;;;;;;12.87;10.63;;;;;;;22.05;67.03;96654.78;6204506;23;20165;-76
2022/08/20 03:30:47;;;;;;;11.77;10.43;;;;;;;22.13;67.00;96662.78;6176419;23;20609;-76
2022/08/20 03:33:19;;;;;;;10.57;9.47;;;;;;;22.35;66.14;96661.50;6177606;23;20803;-76
2022/08/20 03:35:48;;;;;;;14.43;10.13;;;;;;;22.65;65.06;96669.88;6204007;23;20177;-76
2022/08/20 03:38:16;;;;;;;11.70;9.43;;;;;;;22.91;64.25;96674.34;6177927;23;20223;-76
2022/08/20 03:40:47;;;;;;;13.50;10.40;;;;;;;23.05;63.79;96674.63;6204318;23;20164;-75
2022/08/20 03:43:16;;;;;;;12.57;9.20;;;;;;;23.14;63.20;96683.41;6203700;23;20179;-75
2022/08/20 03:45:44;;;;;;;15.70;9.97;;;;;;;23.12;63.09;96661.63;6204380;23;20161;-76
2022/08/20 03:48:15;;;;;;;12.97;9.83;;;;;;;23.26;63.41;96674.25;6203703;23;20174;-76
2022/08/20 03:50:43;;;;;;;12.77;10.43;;;;;;;23.23;62.98;96674.53;6204237;23;20191;-77
2022/08/20 03:53:12;;;;;;;11.27;8.63;;;;;;;23.30;62.56;96670.28;6203896;23;20247;-76
2022/08/20 03:55:44;;;;;;;11.90;9.97;;;;;;;23.34;62.14;96669.03;6177139;22;20250;-76
2022/08/20 03:58:19;;;;;;;12.47;9.70;;;;;;;22.98;63.19;96663.00;6204105;23;20199;-76
2022/08/20 04:00:49;;;;;;;9.97;8.93;;;;;;;23.18;62.64;96674.19;6151411;23;20231;-75
2022/08/20 04:03:17;;;;;;;16.37;10.40;;;;;;;23.20;62.52;96666.94;6203796;23;20166;-75
2022/08/20 04:05:44;;;;;;;13.33;10.90;;;;;;;23.25;62.21;96676.03;6203284;23;20168;-77
2022/08/20 04:08:19;;;;;;;13.83;10.23;;;;;;;22.59;63.25;96654.63;6203846;23;20173;-76
2022/08/20 04:10:48;;;;;;;12.17;9.37;;;;;;;22.50;65.25;96681.91;6203988;23;20166;-76
2022/08/20 04:13:18;;;;;;;16.43;10.30;;;;;;;22.41;65.65;96679.34;6176714;23;20230;-76
2022/08/20 04:15:53;;;;;;;13.53;9.83;;;;;;;22.36;66.08;96685.09;6203720;23;20173;-74
2022/08/20 04:18:24;;;;;;;12.40;9.63;;;;;;;22.35;66.31;96679.97;6203083;23;20652;-75
2022/08/20 04:20:52;;;;;;;15.10;10.47;;;;;;;22.59;65.46;96675.75;6203778;23;20172;-75
2022/08/20 04:23:21;;;;;;;14.77;10.53;;;;;;;22.58;65.37;96674.13;6203600;23;20165;-75
2022/08/20 04:25:49;;;;;;;13.33;10.10;;;;;;;22.76;65.71;96673.25;6203639;23;20193;-75
2022/08/20 04:28:28;;;;;;;14.10;10.30;;;;;;;22.98;65.13;96680.69;6203859;23;20184;-75
2022/08/20 04:30:58;;;;;;;11.47;9.37;;;;;;;23.53;63.33;96682.00;6176084;22;20183;-75
2022/08/20 04:33:30;;;;;;;12.73;9.70;;;;;;;23.94;61.12;96675.06;6203909;23;20199;-75
2022/08/20 04:36:04;;;;;;;13.97;10.13;;;;;;;24.11;60.80;96688.19;6179011;22;20166;-75
2022/08/20 04:38:33;;;;;;;10.23;9.00;;;;;;;24.29;59.63;96679.28;6177362;23;20263;-75
2022/08/20 04:41:18;;;;;;;15.60;9.60;;;;;;;24.27;60.58;96700.63;6204292;23;20619;-76
2022/08/20 04:43:52;;;;;;;13.77;10.30;;;;;;;23.93;60.99;96690.09;6177172;23;20634;-74
2022/08/20 04:46:24;;;;;;;15.30;10.73;;;;;;;23.66;61.88;96684.22;6203527;23;20174;-74
2022/08/20 04:48:52;;;;;;;14.83;10.50;;;;;;;23.57;62.87;96688.63;6177564;23;20181;-75
2022/08/20 04:51:21;;;;;;;13.40;10.47;;;;;;;23.50;62.91;96684.97;6153522;23;20250;-74
2022/08/20 04:53:51;;;;;;;12.80;10.63;;;;;;;23.69;62.66;96679.44;6178021;23;20178;-75
2022/08/20 04:56:22;;;;;;;13.37;9.60;;;;;;;24.28;61.47;96667.88;6204726;23;20226;-75
2022/08/20 04:58:54;;;;;;;12.83;10.57;;;;;;;24.43;60.87;96668.03;6205230;22;20178;-76
2022/08/20 05:01:24;;;;;;;14.73;11.00;;;;;;;24.17;61.36;96669.00;6204724;22;20186;-76
2022/08/20 05:03:53;;;;;;;14.60;10.70;;;;;;;24.14;61.62;96674.63;6205147;23;20682;-75
2022/08/20 05:06:25;;;;;;;11.83;9.97;;;;;;;24.42;61.84;96677.00;6204214;23;20169;-75
2022/08/20 05:08:54;;;;;;;13.93;10.13;;;;;;;24.69;60.43;96676.69;6204416;23;20166;-75
2022/08/20 05:11:25;;;;;;;14.23;10.90;;;;;;;24.83;59.61;96673.38;6204907;23;20217;-75
2022/08/20 05:14:07;;;;;;;13.60;10.90;;;;;;;24.79;59.87;96672.06;6203008;23;20701;-76
2022/08/20 05:16:56;;;;;;;18.13;11.33;;;;;;;24.83;59.54;96684.00;6198878;23;20195;-76
2022/08/20 05:19:23;;;;;;;16.30;11.70;;;;;;;24.90;59.24;96674.34;6203136;22;20184;-77
2022/08/20 05:21:52;;;;;;;12.73;10.30;;;;;;;25.02;59.30;96663.25;6204771;23;20174;-76
2022/08/20 05:24:20;;;;;;;13.80;10.67;;;;;;;25.30;58.69;96661.03;6204908;23;20629;-77
2022/08/20 05:26:53;;;;;;;15.00;11.60;;;;;;;25.68;57.87;96678.84;6177082;23;20166;-76
2022/08/20 05:29:26;;;;;;;11.23;10.00;;;;;;;25.30;58.33;96655.75;6205000;23;20196;-75
2022/08/20 05:31:55;;;;;;;14.53;10.80;;;;;;;25.67;57.75;96679.84;6204616;23;20170;-77
2022/08/20 05:34:25;;;;;;;12.77;10.33;;;;;;;26.04;56.84;96675.69;6179071;22;20173;-76
2022/08/20 05:36:52;;;;;;;11.93;10.03;;;;;;;26.15;56.42;96675.31;6176473;23;20212;-76
2022/08/20 05:39:22;;;;;;;19.37;10.67;;;;;;;26.13;56.39;96680.00;6205200;23;20201;-77
2022/08/20 05:41:50;;;;;;;14.87;10.10;;;;;;;26.42;55.61;96677.47;6205093;23;20161;-76
2022/08/20 05:44:18;;;;;;;12.87;9.70;;;;;;;26.57;55.05;96667.72;6204403;23;20169;-75
2022/08/20 05:46:48;;;;;;;10.87;9.53;;;;;;;26.75;54.34;96678.09;6204566;23;20245;-76
2022/08/20 05:49:20;;;;;;;11.73;9.47;;;;;;;27.08;54.50;96680.25;6205422;22;20256;-75
2022/08/20 05:51:50;;;;;;;11.57;10.23;;;;;;;27.35;54.01;96670.88;6178618;23;20617;-76
2022/08/20 05:54:20;;;;;;;16.30;9.87;;;;;;;27.72;52.04;96680.63;6205873;23;20201;-76
2022/08/20 05:56:47;;;;;;;13.47;9.47;;;;;;;27.82;51.92;96683.81;6206509;23;20193;-76
2022/08/20 05:59:15;;;;;;;11.07;9.10;;;;;;;27.73;51.95;96677.75;6209499;23;20243;-77
2022/08/20 06:01:51;;;;;;;15.43;9.50;;;;;;;27.83;52.20;96672.97;6187935;23;20200;-77
2022/08/20 06:04:23;;;;;;;14.57;9.83;;;;;;;27.91;51.72;96666.69;6183403;23;20166;-77
2022/08/20 06:07:11;;;;;;;21.70;10.87;;;;;;;27.84;52.17;96671.13;6180753;22;20209;-77
2022/08/20 06:09:38;;;;;;;15.07;9.53;;;;;;;28.01;52.30;96670.75;6212268;22;20170;-78
2022/08/20 06:12:10;;;;;;;13.70;9.73;;;;;;;28.07;51.35;96674.50;6195995;23;20170;-77
2022/08/20 06:14:37;;;;;;;14.13;9.53;;;;;;;27.85;51.95;96656.81;6224230;22;20617;-76
2022/08/20 06:17:13;;;;;;;13.17;9.70;;;;;;;28.10;51.51;96680.28;6195001;23;20216;-77
2022/08/20 06:19:42;;;;;;;13.97;9.17;;;;;;;28.40;51.17;96681.03;6216797;22;20170;-77
2022/08/20 06:22:11;;;;;;;12.27;9.90;;;;;;;28.58;50.74;96668.13;6220580;23;20625;-77
2022/08/20 06:24:48;;;;;;;11.63;9.83;;;;;;;28.66;50.54;96676.00;6196778;23;20196;-77
2022/08/20 06:27:18;;;;;;;14.23;10.27;;;;;;;28.71;50.50;96673.56;6216463;23;20672;-76
2022/08/20 06:29:47;;;;;;;11.67;9.23;;;;;;;28.53;50.36;96675.00;6216691;23;20171;-77
2022/08/20 06:32:18;;;;;;;13.80;10.33;;;;;;;28.70;50.17;96681.75;6215216;23;20190;-76
2022/08/20 06:35:02;;;;;;;16.67;10.10;;;;;;;28.81;50.13;96668.72;6216652;23;20261;-77
2022/08/20 06:37:38;;;;;;;22.77;11.63;;;;;;;29.15;49.32;96673.34;6214830;22;20215;-77
2022/08/20 06:40:08;;;;;;;21.70;12.63;;;;;;;28.82;49.47;96673.06;6212123;23;20166;-77
2022/08/20 06:42:42;;;;;;;14.57;10.63;;;;;;;28.81;49.51;96665.28;6184085;23;20169;-77
2022/08/20 06:45:23;;;;;;;24.27;14.13;;;;;;;28.94;49.30;96674.19;6205173;23;20170;-77
2022/08/20 06:47:53;;;;;;;27.33;14.80;;;;;;;29.23;49.43;96669.69;6179422;22;20161;-78
2022/08/20 06:50:28;;;;;;;12.43;9.17;;;;;;;29.48;47.70;96676.25;6178252;23;20245;-78
2022/08/20 06:52:58;;;;;;;26.87;14.47;;;;;;;29.90;48.19;96675.25;6204706;23;20170;-78
2022/08/20 06:55:26;;;;;;;20.97;12.57;;;;;;;29.96;47.45;96667.28;6204792;23;20170;-77
2022/08/20 06:58:00;;;;;;;15.73;12.13;;;;;;;29.95;47.42;96665.63;6177636;23;20209;-78
2022/08/20 07:00:33;;;;;;;14.43;10.50;;;;;;;30.30;46.31;96669.06;6204553;23;20253;-77
2022/08/20 07:03:03;;;;;;;18.73;10.97;;;;;;;30.21;46.04;96659.56;6207882;23;20173;-78
2022/08/20 07:05:35;;;;;;;15.33;10.50;;;;;;;30.13;45.92;96655.19;6178199;23;20181;-77
2022/08/20 07:08:03;;;;;;;14.53;10.40;;;;;;;30.11;47.04;96640.41;6204924;23;20251;-78
2022/08/20 07:10:32;;;;;;;18.33;10.47;;;;;;;30.06;46.84;96649.03;6177285;23;20173;-78
2022/08/20 07:13:02;;;;;;;12.33;9.60;;;;;;;30.14;46.15;96645.34;6178655;23;20246;-78
2022/08/20 07:15:35;;;;;;;15.30;10.97;;;;;;;30.32;45.97;96638.44;6178427;23;20166;-78
2022/08/20 07:18:05;;;;;;;14.67;10.83;;;;;;;30.65;45.92;96648.34;6204098;23;20207;-78
2022/08/20 07:20:35;;;;;;;15.77;10.03;;;;;;;30.60;45.29;96638.28;6178379;23;20165;-78
2022/08/20 07:23:10;;;;;;;19.40;11.20;;;;;;;30.82;45.02;96638.91;6204162;23;20257;-78
2022/08/20 07:25:43;;;;;;;13.93;10.07;;;;;;;31.01;44.96;96633.59;6204639;22;20261;-78
2022/08/20 07:28:18;;;;;;;22.30;11.17;;;;;;;31.01;44.96;96628.25;6178453;22;20245;-79
2022/08/20 07:33:43;;;;;;;16.20;10.73;;;;;;;30.84;44.31;96629.66;6204459;22;20511;-78
2022/08/20 07:36:13;;;;;;;14.40;9.87;;;;;;;31.06;43.83;96614.22;6206156;23;20170;-78
2022/08/20 07:38:44;;;;;;;12.97;9.70;;;;;;;31.02;44.07;96619.16;6203844;22;20747;-78
2022/08/20 07:41:13;;;;;;;16.27;10.90;;;;;;;31.19;44.37;96619.56;6176133;22;20181;-78
2022/08/20 07:43:44;;;;;;;12.97;8.90;;;;;;;31.31;43.80;96613.34;6204484;23;20194;-77
2022/08/20 07:46:20;;;;;;;13.13;8.73;;;;;;;31.54;42.65;96620.94;6179745;23;20186;-77
2022/08/20 07:48:50;;;;;;;14.13;9.03;;;;;;;31.42;42.30;96622.63;6178582;22;20629;-78
2022/08/20 07:51:21;;;;;;;12.43;8.67;;;;;;;31.50;42.02;96627.75;6203906;22;20184;-78
2022/08/20 07:53:51;;;;;;;11.10;8.33;;;;;;;31.24;40.95;96614.41;6176773;23;20615;-79
2022/08/20 07:56:23;;;;;;;10.70;7.90;;;;;;;31.50;39.68;96614.38;6204413;23;20173;-78
2022/08/20 07:58:54;;;;;;;10.03;7.53;;;;;;;31.29;40.60;96611.91;6204174;23;20234;-79
2022/08/20 08:01:25;;;;;;;13.53;8.67;;;;;;;31.36;40.89;96610.06;6203467;23;20166;-79
2022/08/20 08:03:53;;;;;;;11.03;9.43;;;;;;;31.58;41.65;96603.44;6204638;22;20594;-79
2022/08/20 08:06:41;;;;;;;16.73;9.70;;;;;;;31.92;40.65;96608.41;6203660;23;20162;-79
2022/08/20 08:09:16;;;;;;;9.85;8.45;;;;;;;31.97;39.91;96602.47;6258914;22;20205;-79
2022/08/20 08:11:51;;;;;;;16.27;10.90;;;;;;;32.20;39.76;96599.25;6177308;22;20170;-78
2022/08/20 08:14:25;;;;;;;17.08;8.70;;;;;;;32.31;39.40;96602.06;6178181;22;20162;-79
2022/08/20 08:17:01;;;;;;;10.90;7.55;;;;;;;32.42;39.30;96605.91;6176603;22;20222;-78
2022/08/20 08:19:40;;;;;;;9.40;7.50;;;;;;;32.52;38.82;96592.88;6176473;23;20624;-79
2022/08/20 08:22:13;;;;;;;10.23;7.68;;;;;;;32.39;38.91;96595.63;6203978;23;20170;-78
2022/08/20 08:24:45;;;;;;;11.20;7.30;;;;;;;32.28;38.35;96599.81;6204723;22;20657;-78
2022/08/20 08:27:24;;;;;;;8.93;7.15;;;;;;;32.45;37.89;96594.75;6181055;22;20162;-79
2022/08/20 08:29:54;;;;;;;13.30;7.88;;;;;;;32.57;37.76;96588.50;6205165;22;20186;-79
2022/08/20 08:32:23;;;;;;;9.85;7.20;;;;;;;32.58;37.77;96583.97;6205174;23;20182;-79
2022/08/20 08:34:53;;;;;;;11.18;7.60;;;;;;;32.62;38.38;96585.16;6204158;23;20676;-79
2022/08/20 08:37:21;;;;;;;9.48;7.40;;;;;;;32.40;38.60;96583.84;6206074;22;20689;-79
2022/08/20 08:39:50;;;;;;;14.48;7.80;;;;;;;32.33;38.08;96591.94;6178954;22;20497;-78
2022/08/20 08:42:43;;;;;;;8.57;6.88;;;;;;;32.21;37.87;96584.81;6179709;22;20908;-78
2022/08/20 08:45:18;;;;;;;12.93;7.70;;;;;;;31.95;38.70;96581.25;6178830;22;20170;-79
2022/08/20 08:47:47;;;;;;;8.43;7.50;;;;;;;31.50;39.54;96568.84;6204435;22;20682;-78
2022/08/20 08:50:35;;;;;;;7.78;6.97;;;;;;;31.51;38.83;96564.31;6204059;22;20223;-78
2022/08/20 08:53:27;;;;;;;9.40;6.93;;;;;;;31.82;38.99;96561.72;6205371;22;20635;-78
2022/08/20 08:55:54;;;;;;;13.15;8.68;;;;;;;32.13;38.89;96560.94;6178995;22;20169;-79
2022/08/20 08:58:22;;;;;;;9.97;7.50;;;;;;;32.29;38.15;96563.94;6154317;22;20209;-78
2022/08/20 09:00:54;;;;;;;8.48;7.35;;;;;;;32.36;37.38;96553.97;6179363;22;20162;-77
2022/08/20 09:03:33;;;;;;;9.75;7.05;;;;;;;32.21;38.32;96547.28;6204441;22;20200;-78
2022/08/20 09:06:03;;;;;;;9.68;8.32;;;;;;;32.28;38.15;96550.72;6205019;22;20173;-77
2022/08/20 09:08:48;;;;;;;11.10;7.75;;;;;;;31.92;39.08;96564.75;6203853;22;20167;-78
2022/08/20 09:11:18;;;;;;;11.25;7.60;;;;;;;31.83;39.59;96548.09;6178856;22;20166;-78
2022/08/20 09:13:45;;;;;;;12.45;7.72;;;;;;;32.02;38.20;96535.66;6204452;22;20212;-77
2022/08/20 09:16:16;;;;;;;11.95;8.05;;;;;;;32.16;38.48;96539.06;6178046;23;20162;-79
2022/08/20 09:18:44;;;;;;;14.80;8.20;;;;;;;32.45;38.30;96533.91;6152764;23;20216;-78
2022/08/20 09:21:13;;;;;;;11.63;7.63;;;;;;;32.95;36.95;96536.56;6177110;22;20314;-77
2022/08/20 09:23:42;;;;;;;15.93;9.30;;;;;;;32.82;37.60;96526.78;6205397;22;20254;-77
2022/08/20 09:26:12;;;;;;;12.35;7.82;;;;;;;32.68;37.00;96536.00;6205192;22;20234;-77
2022/08/20 09:28:39;;;;;;;10.68;7.63;;;;;;;32.51;37.23;96534.91;6205621;22;20933;-78
2022/08/20 09:31:10;;;;;;;14.82;8.05;;;;;;;32.55;38.58;96525.38;6180076;22;20235;-78
2022/08/20 09:33:47;;;;;;;15.60;8.85;;;;;;;32.75;38.64;96537.56;6203595;22;20161;-76
2022/08/20 09:36:18;;;;;;;11.50;6.35;;;;;;;32.83;36.95;96539.97;6179012;22;20172;-75
2022/08/20 09:38:58;;;;;;;13.23;7.20;;;;;;;32.96;36.54;96538.19;6205779;22;20284;-73
2022/08/20 09:41:26;;;;;;;9.38;7.10;;;;;;;32.67;36.48;96513.72;6205107;22;20471;-75
2022/08/20 09:43:55;;;;;;;13.40;7.30;;;;;;;32.30;37.55;96530.72;6204884;22;20166;-73
2022/08/20 09:46:23;;;;;;;12.52;8.55;;;;;;;32.59;36.77;96516.69;6153689;22;20177;-72
2022/08/20 09:48:55;;;;;;;9.77;7.43;;;;;;;32.98;36.46;96515.50;6177961;22;20227;-78
2022/08/20 09:51:22;;;;;;;17.45;9.18;;;;;;;33.10;38.28;96524.47;6179575;22;20169;-79
2022/08/20 09:53:52;;;;;;;11.98;8.68;;;;;;;32.81;37.98;96525.97;6206916;22;20230;-78
2022/08/20 09:56:21;;;;;;;11.80;8.45;;;;;;;32.74;37.80;96521.72;6205423;22;20178;-78
2022/08/20 09:58:54;;;;;;;12.10;8.75;;;;;;;32.84;38.00;96513.97;6179806;22;20218;-79
2022/08/20 10:01:28;;;;;;;9.60;7.65;;;;;;;32.82;38.49;96522.25;6177015;22;20177;-78
2022/08/20 10:03:57;;;;;;;10.70;8.38;;;;;;;32.55;37.48;96512.81;6179086;23;20166;-78
2022/08/20 10:06:26;;;;;;;11.70;8.93;;;;;;;32.92;37.80;96516.38;6205367;22;20458;-78
2022/08/20 10:09:03;;;;;;;14.35;9.13;;;;;;;33.08;37.13;96480.13;6179728;22;20250;-78
2022/08/20 10:11:31;;;;;;;9.98;7.45;;;;;;;33.56;36.06;96502.47;6204465;22;20227;-78
2022/08/20 10:13:58;;;;;;;12.85;9.15;;;;;;;33.90;35.29;96517.91;6309643;22;20177;-78
2022/08/20 10:16:25;;;;;;;8.65;7.75;;;;;;;32.96;37.00;96496.09;6204397;22;20166;-79
2022/08/20 10:18:53;;;;;;;8.35;7.55;;;;;;;32.79;37.32;96506.59;6204651;22;20644;-78
2022/08/20 10:21:21;;;;;;;11.15;7.47;;;;;;;33.06;36.79;96522.44;6206032;22;20170;-78
2022/08/20 10:23:51;;;;;;;8.20;7.03;;;;;;;32.92;36.57;96505.63;6205743;22;20189;-77
2022/08/20 10:26:19;;;;;;;11.93;7.93;;;;;;;33.21;36.61;96499.56;6204619;22;20754;-77
2022/08/20 10:28:47;;;;;;;14.15;8.25;;;;;;;33.48;35.94;96500.88;6154396;22;20216;-77
2022/08/20 10:31:15;;;;;;;10.88;8.68;;;;;;;33.89;34.68;96497.47;6204479;22;20165;-78
2022/08/20 10:33:52;;;;;;;12.52;8.00;;;;;;;34.07;34.38;96483.16;6178419;22;20196;-77
2022/08/20 10:36:20;;;;;;;11.45;8.25;;;;;;;33.98;35.02;96497.97;6178065;22;20177;-77
2022/08/20 10:38:49;;;;;;;10.10;8.70;;;;;;;33.88;34.83;96501.19;6204860;22;20229;-77
2022/08/20 10:41:16;;;;;;;8.70;7.57;;;;;;;33.90;34.53;96492.91;6205082;22;20191;-75
2022/08/20 10:43:46;;;;;;;13.73;8.55;;;;;;;34.18;34.11;96485.88;6178493;22;20192;-80
2022/08/20 10:46:15;;;;;;;12.13;8.63;;;;;;;34.40;33.81;96480.75;6203571;22;20242;-78
2022/08/20 10:48:43;;;;;;;10.57;8.18;;;;;;;34.53;33.26;96483.25;6204426;22;20181;-76
2022/08/20 10:51:10;;;;;;;9.02;7.30;;;;;;;34.31;34.14;96482.16;6177321;22;20548;-75
2022/08/20 10:53:40;;;;;;;11.75;8.13;;;;;;;34.55;33.81;96481.16;6153891;22;20250;-76
2022/08/20 10:56:07;;;;;;;7.78;7.00;;;;;;;34.23;33.63;96477.13;6204260;22;20609;-75
2022/08/20 10:58:41;;;;;;;11.43;8.27;;;;;;;34.48;34.57;96482.31;6204649;22;20197;-76
2022/08/20 11:01:12;;;;;;;7.40;6.57;;;;;;;34.53;32.86;96469.81;6204202;22;20263;-78
2022/08/20 11:03:59;;;;;;;10.82;7.60;;;;;;;34.35;33.58;96469.88;6204037;22;20194;-78
2022/08/20 11:06:28;;;;;;;9.85;7.15;;;;;;;34.43;33.31;96464.16;6203929;22;20190;-78
2022/08/20 11:08:55;;;;;;;8.52;7.53;;;;;;;34.87;33.04;96468.16;6202946;22;20617;-77
2022/08/20 11:11:23;;;;;;;12.23;7.72;;;;;;;34.89;32.61;96472.25;6204220;22;20166;-78
2022/08/20 11:13:50;;;;;;;10.02;7.70;;;;;;;34.96;31.77;96462.19;6176812;22;20556;-78
2022/08/20 11:16:19;;;;;;;8.75;7.32;;;;;;;34.98;32.30;96454.72;6177226;22;20184;-77
2022/08/20 11:18:50;;;;;;;8.35;7.45;;;;;;;34.83;31.90;96461.63;6177501;22;20202;-77
2022/08/20 11:21:19;;;;;;;8.18;7.38;;;;;;;34.96;32.05;96454.09;6177300;22;20227;-77
2022/08/20 11:23:47;;;;;;;12.13;9.35;;;;;;;35.07;31.67;96447.91;6176956;22;20193;-77
2022/08/20 11:26:23;;;;;;;16.73;10.35;;;;;;;35.06;33.58;96448.97;6203630;22;20629;-77
2022/08/20 11:28:51;;;;;;;9.65;7.72;;;;;;;34.63;33.11;96451.22;6203799;22;20174;-78
2022/08/20 11:31:18;;;;;;;8.82;7.90;;;;;;;34.48;32.62;96429.28;6177219;22;20178;-76
2022/08/20 11:33:45;;;;;;;12.82;8.30;;;;;;;34.74;32.23;96430.72;6176966;22;20265;-77
2022/08/20 11:36:12;;;;;;;12.63;8.13;;;;;;;34.88;32.33;96443.69;6203576;22;20521;-78
2022/08/20 11:38:40;;;;;;;8.95;8.02;;;;;;;34.95;33.00;96440.88;6177750;23;20198;-77
2022/08/20 11:41:07;;;;;;;9.18;7.43;;;;;;;34.70;33.55;96440.31;6178157;22;20169;-80
2022/08/20 11:43:34;;;;;;;9.85;7.45;;;;;;;34.76;33.06;96439.38;6203413;22;20167;-78
2022/08/20 11:46:04;;;;;;;10.60;8.15;;;;;;;34.91;32.39;96431.66;6203885;22;20464;-78
2022/08/20 11:48:32;;;;;;;11.40;7.80;;;;;;;34.84;32.06;96420.19;6203783;22;20172;-78